KBPG/BPG METAR and TAF weather

Enter ICAO airport designator
Station Type Date Time Source
KBPG METAR 2022/12/04 05:50 UTC NOAA

KBPG 040550Z AUTO 08005KT 10SM CLR 06/M07 A3037 RMK AO2 T00591065 10092 20059


Station Type Date Time Source
KBPG Decoded METAR 2022/12/04 05:50 UTC NOAA

Big Spring, Big Spring McMahon-Wrinkle Airport, TX, United States (KBPG) 32-12N 101-31W
Dec 04, 2022 - 12:50 AM EST / 2022.12.04 0550 UTC
Wind: from the E (080 degrees) at 6 MPH (5 KT):0
Visibility: 10 mile(s):0
Sky conditions: clear
Temperature: 42.6 F (5.9 C)
Dew Point: 20.3 F (-6.5 C)
Relative Humidity: 40%
Pressure (altimeter): 30.37 in. Hg (1028 hPa)
ob: KBPG 040550Z AUTO 08005KT 10SM CLR 06/M07 A3037 RMK AO2 T00591065 10092 20059
cycle: 6

Station Type Date Time Source
KBPG TAF UTC NOAA

Error!

Example: see airport list